^^
Station Historical Data
Daily Summary for August 6, 2017 Units:  Metric    English   Both
« Previous Day
Next Day »
Daily Weekly Monthly Yearly Custom
  High: Low: Average:
Temperature: 23.1 °C 3 °C 10.1 °C
Dew Point: -2.6 °C -7.7 °C -5.7 °C
Humidity: 48% 16% 35%
Wind Speed: 11.1km/h 0km/h 0.5km/h
Wind Gust: 16.1km/h - -
Wind- - WSW
Pressure: 1026 hPa 1021.2 hPa -
Precipitation: 0 mm    
Historical Graphs
 
 
Tabular Data for August 6, 2017
Time Temperature Dew Point Pressure Wind Wind Speed Wind Gust Humidity Rainfall Rate (Hourly) solar Conditions
01:03 6.2 °C -5.8 °C 1023.2 hPa Calm     42% 0 mm 0.0 W/m2
01:08 6.2 °C -5.8 °C 1023.2 hPa Calm     42% 0 mm 0.0 W/m2
01:14 6.2 °C -5.8 °C 1022.9 hPa Calm     42% 0 mm 0.0 W/m2
01:19 6 °C -5.9 °C 1022.9 hPa Calm     42% 0 mm 0.0 W/m2
01:29 5.8 °C -6.1 °C 1022.9 hPa Calm     42% 0 mm 0.0 W/m2
01:34 5.6 °C -6 °C 1022.9 hPa Calm     43% 0 mm 0.0 W/m2
01:44 5.4 °C -6.2 °C 1022.9 hPa Calm     43% 0 mm 0.0 W/m2
01:50 5.1 °C -6.2 °C 1022.9 hPa Calm     44% 0 mm 0.0 W/m2
01:55 5 °C -6 °C 1022.9 hPa Calm     45% 0 mm 0.0 W/m2
02:00 4.9 °C -6 °C 1022.9 hPa Calm     45% 0 mm 0.0 W/m2
02:05 4.9 °C -5.8 °C 1022.9 hPa Calm     46% 0 mm 0.0 W/m2
02:10 4.9 °C -5.8 °C 1022.9 hPa Calm     46% 0 mm 0.0 W/m2
02:15 5.1 °C -5.6 °C 1022.9 hPa Calm     46% 0 mm 0.0 W/m2
02:21 5.2 °C -6.1 °C 1022.9 hPa Calm     44% 0 mm 0.0 W/m2
02:26 5.2 °C -5.8 °C 1022.9 hPa Calm     45% 0 mm 0.0 W/m2
02:31 5.1 °C -6.2 °C 1022.9 hPa Calm     44% 0 mm 0.0 W/m2
02:41 4.7 °C -6.2 °C 1022.9 hPa Calm     45% 0 mm 0.0 W/m2
02:46 4.7 °C -6.2 °C 1022.9 hPa Calm     45% 0 mm 0.0 W/m2
02:56 4.8 °C -6.1 °C 1022.9 hPa Calm     45% 0 mm 0.0 W/m2
03:01 4.7 °C -6.2 °C 1022.9 hPa Calm     45% 0 mm 0.0 W/m2
03:07 4.6 °C -6.3 °C 1022.9 hPa Calm     45% 0 mm 0.0 W/m2
03:12 4.6 °C -6 °C 1022.9 hPa Calm     46% 0 mm 0.0 W/m2
03:17 4.4 °C -6.2 °C 1022.9 hPa Calm     46% 0 mm 0.0 W/m2
03:22 4.4 °C -6.5 °C 1022.9 hPa Calm     45% 0 mm 0.0 W/m2
03:28 4.3 °C -6.6 °C 1022.9 hPa Calm     45% 0 mm 0.0 W/m2
03:33 4.2 °C -6.4 °C 1022.9 hPa Calm     46% 0 mm 0.0 W/m2
03:38 4.1 °C -6.5 °C 1022.9 hPa Calm     46% 0 mm 0.0 W/m2
03:43 3.9 °C -6.7 °C 1022.9 hPa Calm     46% 0 mm 0.0 W/m2
03:48 3.8 °C -6.5 °C 1022.9 hPa Calm     47% 0 mm 0.0 W/m2
03:53 3.9 °C -6.4 °C 1022.9 hPa Calm     47% 0 mm 0.0 W/m2
03:59 3.9 °C -6.7 °C 1023.2 hPa Calm     46% 0 mm 0.0 W/m2
04:04 3.8 °C -7 °C 1023.2 hPa Calm     45% 0 mm 0.0 W/m2
04:09 3.7 °C -6.9 °C 1023.2 hPa Calm     46% 0 mm 0.0 W/m2
04:14 3.6 °C -6.7 °C 1023.2 hPa Calm     47% 0 mm 0.0 W/m2
04:19 3.7 °C -6.9 °C 1023.2 hPa Calm     46% 0 mm 0.0 W/m2
04:24 3.6 °C -6.9 °C 1023.2 hPa Calm     46% 0 mm 0.0 W/m2
04:29 3.5 °C -7 °C 1023.2 hPa Calm     46% 0 mm 0.0 W/m2
04:35 3.4 °C -6.9 °C 1023.2 hPa Calm     47% 0 mm 0.0 W/m2
04:40 3.5 °C -6.8 °C 1023.2 hPa Calm     47% 0 mm 0.0 W/m2
04:45 3.6 °C -6.9 °C 1023.2 hPa Calm     46% 0 mm 0.0 W/m2
04:50 3.4 °C -7.1 °C 1023.2 hPa Calm     46% 0 mm 0.0 W/m2
05:00 3.4 °C -7.1 °C 1023.2 hPa Calm     46% 0 mm 0.0 W/m2
05:05 3.3 °C -7.2 °C 1023.6 hPa Calm     46% 0 mm 0.0 W/m2
05:11 3.2 °C -7.3 °C 1023.6 hPa Calm     46% 0 mm 0.0 W/m2
05:16 3.1 °C -7.1 °C 1023.6 hPa Calm     47% 0 mm 0.0 W/m2
05:26 3 °C -7.2 °C 1023.6 hPa Calm     47% 0 mm 0.0 W/m2
05:31 3.2 °C -6.8 °C 1023.9 hPa Calm     48% 0 mm 0.0 W/m2
05:37 3.4 °C -6.9 °C 1023.9 hPa Calm     47% 0 mm 0.0 W/m2
05:50 3.6 °C -6.9 °C 1023.9 hPa Calm     46% 0 mm 0.0 W/m2
06:02 3.3 °C -7.2 °C 1023.9 hPa Calm     46% 0 mm 0.0 W/m2
06:07 3.3 °C -7.2 °C 1024.3 hPa Calm     46% 0 mm 0.0 W/m2
06:18 3.3 °C -7.5 °C 1024.3 hPa Calm     45% 0 mm 0.0 W/m2
06:33 3.8 °C -7 °C 1024.3 hPa Calm     45% 0 mm 7.0 W/m2
06:38 3.9 °C -7.3 °C 1024.6 hPa Calm     44% 0 mm 9.0 W/m2
06:43 3.8 °C -7.3 °C 1024.6 hPa Calm     44% 0 mm 12.0 W/m2
06:49 3.7 °C -7.4 °C 1024.6 hPa Calm     44% 0 mm 14.0 W/m2
06:59 3.6 °C -7.5 °C 1024.9 hPa Calm     44% 0 mm 18.0 W/m2
07:09 3.9 °C -7.3 °C 1024.9 hPa Calm     44% 0 mm 70.0 W/m2
07:14 4.5 °C -7 °C 1024.9 hPa Calm     43% 0 mm 86.0 W/m2
07:29 5.8 °C -6.8 °C 1024.9 hPa Calm     40% 0 mm 123.0 W/m2
07:39 7.7 °C -6.1 °C 1025.3 hPa Calm     37% 0 mm 183.0 W/m2
07:50 9.1 °C -5.6 °C 1025.3 hPa Calm     35% 0 mm 221.0 W/m2
08:21 11.2 °C -5.3 °C 1025.6 hPa Calm     31% 0 mm 301.0 W/m2
08:36 12.2 °C -4.9 °C 1025.6 hPa Calm     30% 0 mm 343.0 W/m2
08:58 14.2 °C -2.7 °C 1026 hPa Calm     31% 0 mm 415.0 W/m2
09:06 14.8 °C -3.1 °C 1025.6 hPa SSW 3.2 km/h 4.8 km/h 29% 0 mm 443.0 W/m2
11:52 19.3 °C -3 °C 1024.3 hPa SW 4.7 km/h 9.7 km/h 22% 0 mm 666.0 W/m2
11:58 19.5 °C -2.8 °C 1023.9 hPa SW 11.1 km/h 12.9 km/h 22% 0 mm 668.0 W/m2
12:04 19.6 °C -2.7 °C 1023.9 hPa Calm     22% 0 mm 666.0 W/m2
12:07 19.7 °C -2.6 °C 1023.9 hPa SW 11.1 km/h 12.9 km/h 22% 0 mm 666.0 W/m2
12:14 19.7 °C -3.2 °C 1023.9 hPa Calm   9.7 km/h 21% 0 mm 664.0 W/m2
12:18 19.7 °C -3.2 °C 1023.6 hPa Calm     21% 0 mm 663.0 W/m2
12:24 19.9 °C -3.1 °C 1023.6 hPa Calm   9.7 km/h 21% 0 mm 661.0 W/m2
13:09 20.9 °C -2.9 °C 1022.9 hPa Calm   16.1 km/h 20% 0 mm 628.0 W/m2
13:25 21.2 °C -2.7 °C 1022.6 hPa WSW 1.4 km/h 11.3 km/h 20% 0 mm 608.0 W/m2
13:33 21.3 °C -2.6 °C 1022.2 hPa Calm   8 km/h 20% 0 mm 584.0 W/m2
13:54 21.7 °C -2.9 °C 1021.9 hPa WSW 11.1 km/h 16.1 km/h 19% 0 mm 557.0 W/m2
14:04 21.9 °C -2.8 °C 1021.9 hPa WSW 6.4 km/h 12.9 km/h 19% 0 mm 529.0 W/m2
14:14 22.1 °C -3.3 °C 1021.9 hPa WSW 1.4 km/h 9.7 km/h 18% 0 mm 506.0 W/m2
14:30 21.9 °C -2.8 °C 1021.6 hPa Calm   8 km/h 19% 0 mm 483.0 W/m2
14:40 22.4 °C -3.1 °C 1021.6 hPa Calm   9.7 km/h 18% 0 mm 445.0 W/m2
14:50 22.4 °C -3.1 °C 1021.6 hPa Calm   6.4 km/h 18% 0 mm 422.0 W/m2
15:05 22.3 °C -3.2 °C 1021.2 hPa Calm     18% 0 mm 380.0 W/m2
15:20 22.7 °C -3.6 °C 1021.2 hPa Calm     17% 0 mm 352.0 W/m2
15:30 22.9 °C -3.5 °C 1021.2 hPa Calm   1.6 km/h 17% 0 mm 323.0 W/m2
15:36 22.9 °C -3.5 °C 1021.2 hPa WSW 1.4 km/h 1.6 km/h 17% 0 mm 294.0 W/m2
15:51 22.6 °C -3.7 °C 1021.2 hPa Calm     17% 0 mm 251.0 W/m2
16:07 23.1 °C -4.1 °C 1021.2 hPa Calm     16% 0 mm 195.0 W/m2
16:23 23 °C -4.2 °C 1021.2 hPa Calm     16% 0 mm 156.0 W/m2
16:32 22.9 °C -4.3 °C 1021.2 hPa Calm     16% 0 mm 100.0 W/m2
17:00 22.6 °C -4.5 °C 1021.2 hPa Calm     16% 0 mm 26.0 W/m2
21:12 15.1 °C -5.3 °C 1022.2 hPa Calm     24% 0 mm 0.0 W/m2
21:22 15.3 °C -5.7 °C 1022.2 hPa Calm     23% 0 mm 0.0 W/m2
21:36 14.7 °C -5.7 °C 1022.2 hPa Calm     24% 0 mm 0.0 W/m2
21:45 14.4 °C -5.9 °C 1022.2 hPa Calm     24% 0 mm 0.0 W/m2
21:54 13.9 °C -6.4 °C 1022.2 hPa Calm     24% 0 mm 0.0 W/m2
23:00 13.8 °C -7 °C 1021.9 hPa Calm     23% 0 mm 0.0 W/m2
23:05 14 °C -7.4 °C 1021.9 hPa Calm     22% 0 mm 0.0 W/m2
23:10 14 °C -6.8 °C 1021.9 hPa Calm     23% 0 mm 0.0 W/m2
23:16 14.1 °C -7.3 °C 1021.9 hPa Calm     22% 0 mm 0.0 W/m2
23:21 13.9 °C -6.9 °C 1021.9 hPa Calm     23% 0 mm 0.0 W/m2
23:27 13.4 °C -6.8 °C 1021.9 hPa Calm     24% 0 mm 0.0 W/m2
23:32 13 °C -6.6 °C 1021.9 hPa Calm     25% 0 mm 0.0 W/m2
23:42 12.3 °C -7.2 °C 1021.9 hPa Calm     25% 0 mm 0.0 W/m2
23:47 11.7 °C -7.7 °C 1021.9 hPa Calm     25% 0 mm 0.0 W/m2
23:52 11.4 °C -7.4 °C 1021.9 hPa Calm     26% 0 mm 0.0 W/m2
23:58 11.4 °C -7.4 °C 1021.9 hPa Calm     26% 0 mm 0.0 W/m2
Canyon Roadhouse, Fishriver Canyon, Namibia
Compliments of Weather Underground - 2.25 mb